createdAt,value
2023-03-26T00:02:07.780Z,11.48
2023-03-26T00:04:36.239Z,10.10
2023-03-26T00:07:05.227Z,10.32
2023-03-26T00:09:35.417Z,10.13
2023-03-26T00:12:04.303Z,9.73
2023-03-26T00:14:33.511Z,10.18
2023-03-26T00:17:02.512Z,10.07
2023-03-26T00:19:30.929Z,9.98
2023-03-26T00:22:00.651Z,9.55
2023-03-26T00:24:30.584Z,9.27
2023-03-26T00:27:01.618Z,10.32
2023-03-26T00:29:33.378Z,9.57
2023-03-26T00:32:02.214Z,8.98
2023-03-26T00:34:31.020Z,8.73
2023-03-26T00:37:02.652Z,9.57
2023-03-26T00:39:35.746Z,9.20
2023-03-26T00:42:08.329Z,8.73
2023-03-26T00:44:37.377Z,8.35
2023-03-26T00:47:06.552Z,8.25
2023-03-26T00:49:35.116Z,7.75
2023-03-26T00:52:04.022Z,8.55
2023-03-26T00:54:32.839Z,7.63
2023-03-26T00:57:01.771Z,8.23
2023-03-26T00:59:35.919Z,7.65
2023-03-26T01:02:05.518Z,8.18
2023-03-26T01:04:37.633Z,8.20
2023-03-26T01:07:11.634Z,7.65
2023-03-26T01:09:45.838Z,7.63
2023-03-26T01:12:17.230Z,7.50
2023-03-26T01:14:51.113Z,8.10
2023-03-26T01:17:22.039Z,6.72
2023-03-26T01:19:54.830Z,7.15
2023-03-26T01:22:25.954Z,8.52
2023-03-26T01:24:56.832Z,6.68
2023-03-26T01:27:36.005Z,7.07
2023-03-26T01:30:11.992Z,7.93
2023-03-26T01:32:50.221Z,7.45
2023-03-26T01:35:26.495Z,7.63
2023-03-26T01:38:12.077Z,7.20
2023-03-26T01:40:49.653Z,7.07
2023-03-26T01:43:26.026Z,7.57
2023-03-26T01:45:55.880Z,7.20
2023-03-26T01:48:31.615Z,7.40
2023-03-26T01:51:00.613Z,8.55
2023-03-26T01:53:29.522Z,7.90
2023-03-26T01:56:05.513Z,7.55
2023-03-26T01:58:38.763Z,8.02
2023-03-26T02:01:18.114Z,7.40
2023-03-26T02:03:52.690Z,6.80
2023-03-26T02:06:25.927Z,6.30
2023-03-26T02:08:58.214Z,6.65
2023-03-26T02:11:35.463Z,6.03
2023-03-26T02:14:06.168Z,6.28
2023-03-26T02:16:35.232Z,6.28
2023-03-26T02:19:05.692Z,5.85
2023-03-26T02:21:35.186Z,6.30
2023-03-26T02:24:04.303Z,5.53
2023-03-26T02:26:38.822Z,6.28
2023-03-26T02:29:12.476Z,6.22
2023-03-26T02:31:43.660Z,6.20
2023-03-26T02:34:12.635Z,5.95
2023-03-26T02:36:48.290Z,6.30
2023-03-26T02:39:17.263Z,6.78
2023-03-26T02:41:55.604Z,5.45
2023-03-26T02:47:01.759Z,6.22
2023-03-26T02:49:42.615Z,5.72
2023-03-26T02:52:17.258Z,5.70
2023-03-26T02:54:48.056Z,5.57
2023-03-26T02:57:23.634Z,6.05
2023-03-26T03:00:11.144Z,5.28
2023-03-26T03:02:40.361Z,5.22
2023-03-26T03:05:32.652Z,5.63
2023-03-26T03:08:22.661Z,5.90
2023-03-26T03:11:11.384Z,5.22
2023-03-26T03:13:47.138Z,5.30
2023-03-26T03:16:22.574Z,5.50
2023-03-26T03:18:58.079Z,5.57
2023-03-26T03:21:36.475Z,5.13
2023-03-26T03:24:05.639Z,5.05
2023-03-26T03:26:42.527Z,4.95
2023-03-26T03:29:48.352Z,4.55
2023-03-26T03:32:43.189Z,4.80
2023-03-26T03:35:12.347Z,4.60
2023-03-26T03:40:12.197Z,4.00
2023-03-26T03:42:43.312Z,5.10
2023-03-26T03:45:14.922Z,4.68
2023-03-26T03:47:56.257Z,5.00
2023-03-26T03:50:35.516Z,3.78
2023-03-26T03:53:27.312Z,3.92
2023-03-26T03:56:02.111Z,4.40
2023-03-26T03:59:06.407Z,4.60
2023-03-26T04:01:38.966Z,4.25
2023-03-26T04:04:11.580Z,4.90
2023-03-26T04:06:56.356Z,4.45
2023-03-26T04:09:27.708Z,4.82
2023-03-26T04:12:00.500Z,4.97
2023-03-26T04:14:42.491Z,4.25
2023-03-26T04:17:22.059Z,4.40
2023-03-26T04:19:53.213Z,4.85
2023-03-26T04:22:22.276Z,4.53
2023-03-26T04:25:02.588Z,5.10
2023-03-26T04:27:37.253Z,4.65
2023-03-26T04:30:29.144Z,4.78
2023-03-26T04:33:15.612Z,5.43
2023-03-26T04:35:48.552Z,5.28
2023-03-26T04:38:18.966Z,4.85
2023-03-26T04:40:50.916Z,4.95
2023-03-26T04:43:50.863Z,5.28
2023-03-26T04:46:48.860Z,5.00
2023-03-26T04:49:28.990Z,4.80
2023-03-26T04:51:58.169Z,4.78
2023-03-26T04:54:46.369Z,5.13
2023-03-26T04:57:21.634Z,4.32
2023-03-26T04:59:55.001Z,5.03
2023-03-26T05:02:24.929Z,5.75
2023-03-26T05:04:57.266Z,4.70
2023-03-26T05:07:29.801Z,5.03
2023-03-26T05:10:03.600Z,5.18
2023-03-26T05:13:01.872Z,4.70
2023-03-26T05:15:37.648Z,5.00
2023-03-26T05:18:10.809Z,5.05
2023-03-26T05:20:44.737Z,4.82
2023-03-26T05:23:13.837Z,3.70
2023-03-26T05:25:47.225Z,4.60
2023-03-26T05:28:24.541Z,4.97
2023-03-26T05:31:03.523Z,4.07
2023-03-26T05:33:37.378Z,4.45
2023-03-26T05:36:17.769Z,4.32
2023-03-26T05:38:52.369Z,5.50
2023-03-26T05:41:56.889Z,4.57
2023-03-26T05:44:34.429Z,4.57
2023-03-26T05:47:07.814Z,4.88
2023-03-26T05:49:36.828Z,4.95
2023-03-26T05:52:07.255Z,4.75
2023-03-26T05:54:55.041Z,4.50
2023-03-26T05:57:44.169Z,4.60
2023-03-26T06:00:42.287Z,5.07
2023-03-26T06:03:14.926Z,4.57
2023-03-26T06:06:15.734Z,4.45
2023-03-26T06:09:01.692Z,4.40
2023-03-26T06:11:33.017Z,4.03
2023-03-26T06:14:03.739Z,4.28
2023-03-26T06:16:33.146Z,4.32
2023-03-26T06:19:14.157Z,4.15
2023-03-26T06:22:12.568Z,4.05
2023-03-26T06:25:15.293Z,4.03
2023-03-26T06:30:50.918Z,3.92
2023-03-26T06:33:34.325Z,4.57
2023-03-26T06:36:03.617Z,4.53
2023-03-26T06:38:32.828Z,4.30
2023-03-26T06:41:06.867Z,4.20
2023-03-26T06:43:39.181Z,4.47
2023-03-26T06:46:17.391Z,4.45
2023-03-26T06:49:06.570Z,4.10
2023-03-26T06:51:52.124Z,4.57
2023-03-26T06:54:40.059Z,4.18
2023-03-26T06:57:27.410Z,3.70
2023-03-26T07:00:16.194Z,3.85
2023-03-26T07:03:04.963Z,3.83
2023-03-26T07:05:54.066Z,4.30
2023-03-26T07:08:43.309Z,3.97
2023-03-26T07:11:30.947Z,3.55
2023-03-26T07:14:10.153Z,4.15
2023-03-26T07:17:01.737Z,3.88
2023-03-26T07:19:58.259Z,4.20
2023-03-26T07:22:29.171Z,2.85
2023-03-26T07:25:08.401Z,3.17
2023-03-26T07:28:12.704Z,3.67
2023-03-26T07:31:22.422Z,3.55
2023-03-26T07:34:23.593Z,3.53
2023-03-26T07:37:14.092Z,3.50
2023-03-26T07:40:05.042Z,4.10
2023-03-26T07:43:01.834Z,3.58
2023-03-26T07:45:41.104Z,3.92
2023-03-26T07:48:29.661Z,3.42
2023-03-26T07:51:11.538Z,4.40
2023-03-26T07:53:51.415Z,4.28
2023-03-26T07:56:41.613Z,3.92
2023-03-26T07:59:49.222Z,3.50
2023-03-26T08:03:09.944Z,3.88
2023-03-26T08:06:03.418Z,3.65
2023-03-26T08:09:01.226Z,3.40
2023-03-26T08:11:54.520Z,3.20
2023-03-26T08:14:34.827Z,3.15
2023-03-26T08:17:08.065Z,3.17
2023-03-26T08:20:06.825Z,2.90
2023-03-26T08:22:41.181Z,3.10
2023-03-26T08:25:24.464Z,3.30
2023-03-26T08:28:03.143Z,3.13
2023-03-26T08:30:32.730Z,3.50
2023-03-26T08:33:03.960Z,3.20
2023-03-26T08:35:35.296Z,3.63
2023-03-26T08:38:05.778Z,3.88
2023-03-26T08:41:19.505Z,4.55
2023-03-26T08:44:05.980Z,3.30
2023-03-26T08:47:01.409Z,3.60
2023-03-26T08:49:59.383Z,3.92
2023-03-26T08:52:57.132Z,3.30
2023-03-26T08:55:42.098Z,3.58
2023-03-26T08:58:54.492Z,2.95
2023-03-26T09:01:48.002Z,3.00
2023-03-26T09:04:44.419Z,3.13
2023-03-26T09:07:54.929Z,2.75
2023-03-26T09:13:39.720Z,3.22
2023-03-26T09:16:35.665Z,2.70
2023-03-26T09:19:37.591Z,3.05
2023-03-26T09:22:33.236Z,2.95
2023-03-26T09:25:43.843Z,3.10
2023-03-26T09:28:29.221Z,2.55
2023-03-26T09:31:11.246Z,3.13
2023-03-26T09:33:56.471Z,3.17
2023-03-26T09:36:57.734Z,3.00
2023-03-26T09:39:37.592Z,2.38
2023-03-26T09:42:19.355Z,3.30
2023-03-26T09:45:22.709Z,2.80
2023-03-26T09:48:10.471Z,3.15
2023-03-26T09:50:53.237Z,3.08
2023-03-26T09:53:50.750Z,3.72
2023-03-26T09:56:27.378Z,3.40
2023-03-26T09:59:34.106Z,2.92
2023-03-26T10:02:17.247Z,2.15
2023-03-26T10:05:06.397Z,2.90
2023-03-26T10:07:57.234Z,2.38
2023-03-26T10:10:33.409Z,2.35
2023-03-26T10:13:14.590Z,1.95
2023-03-26T10:15:58.649Z,1.77
2023-03-26T10:18:34.819Z,2.22
2023-03-26T10:21:07.700Z,2.00
2023-03-26T10:24:10.413Z,1.88
2023-03-26T10:27:08.557Z,1.80
2023-03-26T10:29:56.053Z,1.35
2023-03-26T10:32:31.652Z,1.65
2023-03-26T10:35:10.004Z,1.70
2023-03-26T10:37:49.219Z,2.35
2023-03-26T10:40:22.554Z,1.20
2023-03-26T10:43:01.316Z,1.08
2023-03-26T10:45:38.306Z,1.48
2023-03-26T10:48:54.656Z,1.40
2023-03-26T10:51:35.649Z,1.30
2023-03-26T10:54:09.678Z,1.95
2023-03-26T10:56:42.768Z,1.70
2023-03-26T10:59:14.505Z,2.00
2023-03-26T11:01:46.165Z,1.65
2023-03-26T11:04:25.708Z,1.70
2023-03-26T11:07:04.934Z,2.25
2023-03-26T11:09:39.457Z,2.05
2023-03-26T11:12:26.519Z,2.20
2023-03-26T11:15:07.536Z,2.67
2023-03-26T11:17:44.613Z,3.25
2023-03-26T11:20:18.495Z,3.45
2023-03-26T11:23:00.457Z,2.38
2023-03-26T11:25:37.185Z,2.13
2023-03-26T11:28:15.601Z,2.00
2023-03-26T11:30:49.998Z,1.95
2023-03-26T11:33:24.154Z,2.13
2023-03-26T11:35:56.322Z,2.00
2023-03-26T11:38:31.949Z,1.90
2023-03-26T11:41:01.613Z,2.03
2023-03-26T11:43:52.498Z,2.08
2023-03-26T11:46:24.714Z,2.42
2023-03-26T11:48:59.551Z,1.95
2023-03-26T11:51:33.160Z,1.85
2023-03-26T11:54:04.360Z,2.00
2023-03-26T11:56:34.900Z,1.83
2023-03-26T11:59:07.215Z,1.70
2023-03-26T12:01:50.668Z,1.38
2023-03-26T12:04:21.312Z,1.50
2023-03-26T12:06:56.765Z,1.75
2023-03-26T12:09:27.271Z,1.98
2023-03-26T12:12:05.161Z,1.77
2023-03-26T12:14:36.390Z,2.15
2023-03-26T12:17:08.001Z,1.60
2023-03-26T12:19:39.598Z,1.65
2023-03-26T12:22:29.597Z,1.98
2023-03-26T12:25:16.838Z,2.20
2023-03-26T12:27:46.596Z,1.90
2023-03-26T12:30:22.657Z,2.60
2023-03-26T12:32:53.812Z,2.45
2023-03-26T12:35:25.786Z,1.70
2023-03-26T12:37:58.089Z,1.65
2023-03-26T12:40:34.485Z,1.90
2023-03-26T12:44:52.998Z,1.98
2023-03-26T12:47:55.491Z,2.88
2023-03-26T12:48:46.060Z,1.58
2023-03-26T12:51:21.728Z,1.83
2023-03-26T12:54:05.373Z,1.55
2023-03-26T12:56:40.964Z,2.30
2023-03-26T12:59:22.092Z,2.67
2023-03-26T13:01:56.897Z,2.10
2023-03-26T13:05:02.245Z,1.92
2023-03-26T13:07:43.896Z,1.95
2023-03-26T13:10:31.741Z,1.98
2023-03-26T13:13:12.220Z,1.45
2023-03-26T13:15:42.803Z,1.73
2023-03-26T13:18:21.538Z,1.70
2023-03-26T13:20:52.882Z,2.00
2023-03-26T13:23:31.055Z,1.98
2023-03-26T13:26:07.209Z,1.80
2023-03-26T13:28:43.946Z,1.88
2023-03-26T13:31:19.326Z,1.75
2023-03-26T13:33:51.852Z,1.70
2023-03-26T13:36:26.075Z,2.10
2023-03-26T13:39:04.897Z,1.65
2023-03-26T13:41:44.069Z,1.65
2023-03-26T13:44:18.705Z,1.92
2023-03-26T13:46:50.564Z,2.10
2023-03-26T13:49:33.180Z,1.70
2023-03-26T13:52:04.672Z,2.25
2023-03-26T13:54:37.142Z,1.25
2023-03-26T13:57:10.653Z,1.08
2023-03-26T13:59:45.260Z,0.93
2023-03-26T14:02:22.683Z,1.00
2023-03-26T14:04:53.843Z,1.05
2023-03-26T14:07:27.047Z,1.02
2023-03-26T14:09:58.571Z,1.02
2023-03-26T14:12:49.384Z,1.58
2023-03-26T14:15:26.415Z,1.23
2023-03-26T14:18:02.989Z,1.20
2023-03-26T14:20:52.510Z,1.45
2023-03-26T14:23:50.547Z,1.00
2023-03-26T14:26:27.586Z,1.20
2023-03-26T14:33:27.444Z,1.45
2023-03-26T14:36:01.363Z,1.50
2023-03-26T14:39:12.016Z,1.52
2023-03-26T14:41:48.532Z,1.83
2023-03-26T14:44:52.498Z,1.40
2023-03-26T14:47:22.806Z,2.00
2023-03-26T14:50:28.775Z,1.23
2023-03-26T14:53:00.815Z,1.40
2023-03-26T14:55:44.826Z,1.40
2023-03-26T14:58:30.012Z,1.38
2023-03-26T15:01:20.790Z,1.38
2023-03-26T15:04:10.695Z,1.80
2023-03-26T15:07:31.353Z,1.25
2023-03-26T15:10:22.708Z,1.27
2023-03-26T15:13:12.260Z,1.38
2023-03-26T15:16:18.256Z,1.73
2023-03-26T15:19:22.178Z,1.42
2023-03-26T15:22:12.979Z,1.67
2023-03-26T15:25:12.637Z,1.58
2023-03-26T15:27:57.563Z,1.67
2023-03-26T15:31:06.750Z,2.00
2023-03-26T15:34:20.121Z,1.92
2023-03-26T15:37:39.444Z,1.63
2023-03-26T15:40:30.622Z,1.75
2023-03-26T15:43:08.007Z,1.92
2023-03-26T15:45:38.621Z,1.83
2023-03-26T15:48:26.013Z,1.85
2023-03-26T15:51:00.229Z,1.90
2023-03-26T15:53:39.903Z,2.65
2023-03-26T15:56:22.200Z,2.55
2023-03-26T15:58:57.201Z,2.30
2023-03-26T16:01:37.509Z,2.45
2023-03-26T16:04:16.049Z,2.38
2023-03-26T16:06:50.183Z,2.38
2023-03-26T16:09:35.477Z,1.98
2023-03-26T16:12:29.052Z,2.03
2023-03-26T16:15:26.986Z,2.35
2023-03-26T16:18:30.104Z,2.30
2023-03-26T16:21:31.672Z,2.63
2023-03-26T16:24:19.368Z,2.60
2023-03-26T16:26:56.668Z,2.97
2023-03-26T16:29:28.155Z,2.75
2023-03-26T16:32:07.288Z,2.58
2023-03-26T16:34:42.169Z,2.87
2023-03-26T16:37:37.244Z,2.80
2023-03-26T16:40:28.689Z,3.05
2023-03-26T16:43:08.227Z,2.67
2023-03-26T16:45:39.397Z,3.30
2023-03-26T16:48:18.602Z,3.67
2023-03-26T16:50:53.639Z,3.95
2023-03-26T16:53:30.820Z,3.60
2023-03-26T16:56:01.255Z,3.22
2023-03-26T16:58:34.183Z,3.30
2023-03-26T17:01:09.850Z,3.25
2023-03-26T17:03:51.253Z,3.58
2023-03-26T17:06:47.015Z,3.55
2023-03-26T17:09:24.829Z,3.45
2023-03-26T17:12:00.756Z,3.47
2023-03-26T17:14:48.912Z,4.03
2023-03-26T17:17:32.147Z,4.00
2023-03-26T17:20:08.623Z,4.50
2023-03-26T17:22:42.082Z,4.20
2023-03-26T17:25:33.603Z,3.63
2023-03-26T17:28:24.331Z,4.00
2023-03-26T17:31:02.156Z,4.55
2023-03-26T17:33:34.805Z,4.55
2023-03-26T17:36:29.653Z,5.30
2023-03-26T17:39:02.464Z,4.45
2023-03-26T17:41:55.211Z,4.22
2023-03-26T17:44:38.732Z,4.68
2023-03-26T17:47:12.349Z,4.63
2023-03-26T17:49:42.672Z,4.72
2023-03-26T17:54:48.079Z,5.30
2023-03-26T17:57:22.602Z,5.13
2023-03-26T17:59:54.876Z,5.93
2023-03-26T18:02:32.909Z,6.28
2023-03-26T18:05:02.230Z,6.53
2023-03-26T18:08:15.151Z,7.97
2023-03-26T18:11:10.523Z,8.60
2023-03-26T18:14:14.197Z,8.68
2023-03-26T18:16:44.846Z,13.05
2023-03-26T18:19:19.404Z,15.88
2023-03-26T18:21:50.786Z,17.02
2023-03-26T18:24:24.562Z,14.27
2023-03-26T18:26:58.526Z,13.68
2023-03-26T18:29:29.559Z,12.57
2023-03-26T18:32:00.631Z,11.48
2023-03-26T18:34:32.055Z,11.85
2023-03-26T18:37:14.782Z,10.60
2023-03-26T18:39:46.396Z,12.35
2023-03-26T18:42:24.140Z,12.38
2023-03-26T18:44:59.916Z,13.27
2023-03-26T18:47:31.644Z,12.48
2023-03-26T18:50:01.297Z,11.73
2023-03-26T18:52:31.390Z,12.27
2023-03-26T19:00:16.283Z,14.03
2023-03-26T19:02:46.286Z,13.77
2023-03-26T19:05:17.336Z,13.73
2023-03-26T19:07:47.280Z,12.63
2023-03-26T19:12:58.473Z,12.93
2023-03-26T19:15:28.974Z,13.45
2023-03-26T19:18:03.916Z,14.68
2023-03-26T19:20:39.465Z,16.30
2023-03-26T19:23:10.486Z,13.57
2023-03-26T19:25:42.222Z,16.50
2023-03-26T19:28:18.019Z,14.30
2023-03-26T19:30:47.348Z,14.82
2023-03-26T19:33:18.871Z,15.60
2023-03-26T19:35:53.290Z,16.60
2023-03-26T19:38:25.661Z,16.95
2023-03-26T19:40:57.097Z,18.00
2023-03-26T19:43:26.898Z,17.75
2023-03-26T19:46:00.112Z,16.67
2023-03-26T19:48:46.317Z,15.75
2023-03-26T19:51:23.144Z,16.33
2023-03-26T19:53:55.589Z,15.32
2023-03-26T19:56:26.890Z,14.73
2023-03-26T19:58:55.976Z,16.27
2023-03-26T20:01:26.870Z,17.00
2023-03-26T20:03:58.024Z,17.25
2023-03-26T20:06:41.502Z,17.27
2023-03-26T20:09:12.719Z,16.75
2023-03-26T20:11:43.549Z,16.10
2023-03-26T20:16:43.882Z,17.10
2023-03-26T20:19:14.881Z,16.05
2023-03-26T20:21:44.958Z,15.95
2023-03-26T20:24:15.850Z,14.27
2023-03-26T20:26:46.972Z,15.02
2023-03-26T20:29:16.095Z,14.55
2023-03-26T20:31:46.002Z,15.93
2023-03-26T20:34:17.867Z,13.60
2023-03-26T20:36:47.250Z,14.80
2023-03-26T20:39:16.278Z,16.25
2023-03-26T20:41:48.520Z,15.27
2023-03-26T20:44:19.756Z,13.70
2023-03-26T20:46:52.637Z,14.38
2023-03-26T20:49:23.047Z,13.80
2023-03-26T20:51:51.946Z,15.18
2023-03-26T20:54:23.550Z,15.50
2023-03-26T20:56:54.786Z,16.35
2023-03-26T20:59:26.918Z,17.05
2023-03-26T21:01:57.827Z,16.50
2023-03-26T21:04:27.798Z,16.38
2023-03-26T21:07:07.228Z,17.85
2023-03-26T21:09:45.149Z,19.10
2023-03-26T21:12:31.182Z,17.10
2023-03-26T21:15:03.233Z,17.60
2023-03-26T21:17:34.566Z,17.77
2023-03-26T21:20:12.076Z,16.50
2023-03-26T21:22:46.253Z,16.55
2023-03-26T21:25:21.960Z,15.57
2023-03-26T21:28:02.579Z,16.08
2023-03-26T21:30:32.932Z,16.83
2023-03-26T21:33:02.303Z,17.35
2023-03-26T21:35:32.036Z,16.87
2023-03-26T21:38:01.630Z,16.48
2023-03-26T21:40:30.838Z,16.65
2023-03-26T21:43:01.950Z,16.08
2023-03-26T21:45:31.781Z,16.95
2023-03-26T21:48:02.511Z,16.08
2023-03-26T21:50:32.135Z,16.08
2023-03-26T21:53:01.597Z,17.50
2023-03-26T21:55:30.984Z,19.45
2023-03-26T21:58:17.159Z,19.63
2023-03-26T22:00:55.916Z,18.02
2023-03-26T22:03:27.687Z,19.63
2023-03-26T22:06:01.185Z,20.13
2023-03-26T22:08:32.496Z,18.33
2023-03-26T22:11:01.521Z,19.92
2023-03-26T22:13:31.394Z,21.83
2023-03-26T22:18:30.343Z,21.70
2023-03-26T22:21:00.470Z,21.20
2023-03-26T22:23:34.378Z,19.05
2023-03-26T22:26:03.493Z,17.25
2023-03-26T22:28:33.562Z,17.90
2023-03-26T22:31:07.448Z,17.38
2023-03-26T22:33:37.010Z,18.38
2023-03-26T22:36:06.625Z,17.77
2023-03-26T22:38:54.279Z,18.05
2023-03-26T22:41:23.909Z,16.42
2023-03-26T22:43:55.239Z,17.15
2023-03-26T22:46:24.799Z,17.52
2023-03-26T22:48:54.322Z,18.88
2023-03-26T22:51:23.208Z,17.40
2023-03-26T22:53:52.185Z,18.02
2023-03-26T22:56:21.021Z,18.08
2023-03-26T22:58:49.492Z,16.98
2023-03-26T23:01:21.463Z,16.50
2023-03-26T23:03:51.026Z,17.13
2023-03-26T23:06:20.010Z,17.07
2023-03-26T23:08:48.960Z,17.38
2023-03-26T23:11:19.857Z,17.00
2023-03-26T23:13:48.871Z,16.95
2023-03-26T23:16:21.746Z,17.48
2023-03-26T23:18:50.769Z,16.35
2023-03-26T23:21:21.184Z,15.80
2023-03-26T23:23:51.707Z,17.70
2023-03-26T23:26:20.783Z,16.17
2023-03-26T23:28:51.196Z,17.33
2023-03-26T23:31:21.757Z,16.75
2023-03-26T23:33:50.669Z,16.23
2023-03-26T23:36:20.660Z,16.67
2023-03-26T23:38:50.062Z,16.40
2023-03-26T23:41:21.623Z,17.87
2023-03-26T23:43:55.586Z,17.52
2023-03-26T23:46:30.478Z,16.98
2023-03-26T23:49:02.676Z,16.88
2023-03-26T23:51:32.812Z,17.77
2023-03-26T23:54:02.478Z,18.38
2023-03-26T23:56:32.038Z,18.20
2023-03-26T23:59:01.128Z,18.30
